createdAt,value
2022-08-05T00:01:28.314Z,76.70
2022-08-05T00:03:56.782Z,76.80
2022-08-05T00:06:32.425Z,76.90
2022-08-05T00:09:00.609Z,77.10
2022-08-05T00:11:30.387Z,77.90
2022-08-05T00:14:13.096Z,78.00
2022-08-05T00:16:52.960Z,77.80
2022-08-05T00:19:33.627Z,78.50
2022-08-05T00:22:07.378Z,78.80
2022-08-05T00:24:38.356Z,79.30
2022-08-05T00:27:21.589Z,79.40
2022-08-05T00:29:56.376Z,79.50
2022-08-05T00:32:25.831Z,80.50
2022-08-05T00:35:05.043Z,81.10
2022-08-05T00:37:51.358Z,81.40
2022-08-05T00:40:28.154Z,81.50
2022-08-05T00:43:00.046Z,81.50
2022-08-05T00:45:28.150Z,82.20
2022-08-05T00:48:05.949Z,82.20
2022-08-05T00:50:32.907Z,81.70
2022-08-05T00:52:59.696Z,82.40
2022-08-05T00:55:42.366Z,82.90
2022-08-05T00:58:12.397Z,83.40
2022-08-05T01:00:40.866Z,83.90
2022-08-05T01:03:10.594Z,83.90
2022-08-05T01:05:49.245Z,85.10
2022-08-05T01:08:30.393Z,85.30
2022-08-05T01:11:22.504Z,85.40
2022-08-05T01:14:08.938Z,84.80
2022-08-05T01:16:49.224Z,85.20
2022-08-05T01:19:30.135Z,86.80
2022-08-05T01:22:31.822Z,89.00
2022-08-05T01:25:24.012Z,87.20
2022-08-05T01:28:34.925Z,86.70
2022-08-05T01:31:15.192Z,86.40
2022-08-05T01:33:59.902Z,85.70
2022-08-05T01:36:32.145Z,84.80
2022-08-05T01:39:01.368Z,85.00
2022-08-05T01:41:32.545Z,83.70
2022-08-05T01:44:01.640Z,81.20
2022-08-05T01:46:42.868Z,79.60
2022-08-05T01:49:23.742Z,78.50
2022-08-05T01:51:58.369Z,76.80
2022-08-05T01:54:33.212Z,76.30
2022-08-05T01:58:10.981Z,76.00
2022-08-05T01:59:50.799Z,75.80
2022-08-05T02:02:19.979Z,76.00
2022-08-05T02:04:56.553Z,76.20
2022-08-05T02:07:24.226Z,75.10
2022-08-05T02:09:57.180Z,75.30
2022-08-05T02:12:56.675Z,75.30
2022-08-05T02:15:33.423Z,74.80
2022-08-05T02:18:32.055Z,74.50
2022-08-05T02:21:15.363Z,74.20
2022-08-05T02:23:46.286Z,73.40
2022-08-05T02:26:17.138Z,74.30
2022-08-05T02:28:45.984Z,73.60
2022-08-05T02:31:17.238Z,74.80
2022-08-05T02:33:57.739Z,73.80
2022-08-05T02:36:27.530Z,73.90
2022-08-05T02:38:56.442Z,74.70
2022-08-05T02:41:28.697Z,75.30
2022-08-05T02:44:12.259Z,75.60
2022-08-05T02:46:53.807Z,76.10
2022-08-05T02:49:40.873Z,74.80
2022-08-05T02:52:25.867Z,74.40
2022-08-05T02:55:02.014Z,74.70
2022-08-05T02:58:10.505Z,75.20
2022-08-05T03:00:21.653Z,74.90
2022-08-05T03:02:49.415Z,75.50
2022-08-05T03:05:21.634Z,76.30
2022-08-05T03:08:08.598Z,76.30
2022-08-05T03:10:36.418Z,75.90
2022-08-05T03:13:10.998Z,75.90
2022-08-05T03:15:47.993Z,75.70
2022-08-05T03:18:18.584Z,76.20
2022-08-05T03:20:51.495Z,76.80
2022-08-05T03:23:18.308Z,76.90
2022-08-05T03:26:04.012Z,77.30
2022-08-05T03:28:38.387Z,77.70
2022-08-05T03:31:05.400Z,77.70
2022-08-05T03:33:51.204Z,77.70
2022-08-05T03:36:30.270Z,77.70
2022-08-05T03:38:57.926Z,77.70
2022-08-05T03:41:24.660Z,78.00
2022-08-05T03:44:08.853Z,78.30
2022-08-05T03:46:38.402Z,78.70
2022-08-05T03:49:05.143Z,79.00
2022-08-05T03:52:37.589Z,78.80
2022-08-05T03:56:09.850Z,79.40
2022-08-05T03:57:48.518Z,79.40
2022-08-05T04:00:17.478Z,79.90
2022-08-05T04:02:58.649Z,80.20
2022-08-05T04:05:33.131Z,80.20
2022-08-05T04:08:03.388Z,80.30
2022-08-05T04:10:37.884Z,80.50
2022-08-05T04:13:07.499Z,80.70
2022-08-05T04:15:36.463Z,80.80
2022-08-05T04:18:10.258Z,80.80
2022-08-05T04:20:53.760Z,80.60
2022-08-05T04:24:06.688Z,80.60
2022-08-05T04:26:10.163Z,80.30
2022-08-05T04:28:40.381Z,81.10
2022-08-05T04:31:19.316Z,80.80
2022-08-05T04:34:18.480Z,81.40
2022-08-05T04:36:46.144Z,80.90
2022-08-05T04:39:20.741Z,80.60
2022-08-05T04:41:48.656Z,81.00
2022-08-05T04:44:21.434Z,81.70
2022-08-05T04:46:58.856Z,82.70
2022-08-05T04:49:39.042Z,83.50
2022-08-05T04:52:13.461Z,83.10
2022-08-05T04:54:40.608Z,83.30
2022-08-05T04:57:07.273Z,84.90
2022-08-05T04:59:38.340Z,84.80
2022-08-05T05:02:41.277Z,84.90
2022-08-05T05:04:53.228Z,85.00
2022-08-05T05:07:31.958Z,85.80
2022-08-05T05:09:59.764Z,86.00
2022-08-05T05:12:29.320Z,86.10
2022-08-05T05:14:56.064Z,86.30
2022-08-05T05:17:24.620Z,86.70
2022-08-05T05:19:56.365Z,87.10
2022-08-05T05:22:26.352Z,86.70
2022-08-05T05:24:59.857Z,86.90
2022-08-05T05:27:44.247Z,86.60
2022-08-05T05:30:28.760Z,86.20
2022-08-05T05:32:57.084Z,85.90
2022-08-05T05:35:37.772Z,85.80
2022-08-05T05:38:06.432Z,85.30
2022-08-05T05:40:36.355Z,84.50
2022-08-05T05:43:03.146Z,84.20
2022-08-05T05:45:29.967Z,84.30
2022-08-05T05:48:06.210Z,84.20
2022-08-05T05:50:43.972Z,84.90
2022-08-05T05:53:22.359Z,84.40
2022-08-05T05:55:51.710Z,85.10
2022-08-05T05:58:30.273Z,84.20
2022-08-05T06:01:02.188Z,83.40
2022-08-05T06:04:01.395Z,83.50
2022-08-05T06:06:27.948Z,82.80
2022-08-05T06:08:57.601Z,83.60
2022-08-05T06:11:24.405Z,82.50
2022-08-05T06:13:54.025Z,82.40
2022-08-05T06:16:28.927Z,80.70
2022-08-05T06:19:00.082Z,80.60
2022-08-05T06:21:35.937Z,80.00
2022-08-05T06:24:11.245Z,79.60
2022-08-05T06:26:51.558Z,79.60
2022-08-05T06:29:25.267Z,79.30
2022-08-05T06:32:25.111Z,78.30
2022-08-05T06:34:56.315Z,76.60
2022-08-05T06:37:56.424Z,76.00
2022-08-05T06:40:12.295Z,76.20
2022-08-05T06:42:40.428Z,76.00
2022-08-05T06:45:09.352Z,74.70
2022-08-05T06:48:37.245Z,74.50
2022-08-05T06:50:24.838Z,74.20
2022-08-05T06:53:04.080Z,73.80
2022-08-05T06:55:38.225Z,72.40
2022-08-05T06:58:20.078Z,72.70
2022-08-05T07:00:59.733Z,71.70
2022-08-05T07:03:28.137Z,70.00
2022-08-05T07:05:59.791Z,68.80
2022-08-05T07:08:27.799Z,68.20
2022-08-05T07:10:55.776Z,67.70
2022-08-05T07:13:59.261Z,68.80
2022-08-05T07:18:00.691Z,67.40
2022-08-05T07:22:28.747Z,67.00
2022-08-05T07:25:54.320Z,65.90
2022-08-05T07:27:58.073Z,66.60
2022-08-05T07:30:31.869Z,66.10
2022-08-05T07:33:00.559Z,66.20
2022-08-05T07:36:02.373Z,65.90
2022-08-05T07:38:32.803Z,66.40
2022-08-05T07:42:08.760Z,65.00
2022-08-05T07:43:52.506Z,64.80
2022-08-05T07:46:25.034Z,63.40
2022-08-05T07:49:01.614Z,63.50
2022-08-05T07:51:37.098Z,62.20
2022-08-05T07:54:08.364Z,62.00
2022-08-05T07:57:00.543Z,61.70
2022-08-05T07:59:38.052Z,62.00
2022-08-05T08:02:16.483Z,62.00
2022-08-05T08:04:48.283Z,61.70
2022-08-05T08:07:17.880Z,61.00
2022-08-05T08:09:48.630Z,62.00
2022-08-05T08:12:37.024Z,60.80
2022-08-05T08:15:14.136Z,60.40
2022-08-05T08:17:49.778Z,59.40
2022-08-05T08:20:43.382Z,59.50
2022-08-05T08:23:11.665Z,58.60
2022-08-05T08:26:00.392Z,58.30
2022-08-05T08:28:36.204Z,58.50
2022-08-05T08:31:08.529Z,58.10
2022-08-05T08:33:37.654Z,57.30
2022-08-05T08:36:38.105Z,57.80
2022-08-05T08:38:56.133Z,58.80
2022-08-05T08:41:50.590Z,57.20
2022-08-05T08:45:23.786Z,56.10
2022-08-05T08:47:46.955Z,55.90
2022-08-05T08:50:23.069Z,55.30
2022-08-05T08:52:53.168Z,55.10
2022-08-05T08:55:31.924Z,54.90
2022-08-05T08:58:08.830Z,54.10
2022-08-05T09:00:36.394Z,54.30
2022-08-05T09:03:06.564Z,54.10
2022-08-05T09:05:38.664Z,54.10
2022-08-05T09:08:26.542Z,52.40
2022-08-05T09:10:54.316Z,51.70
2022-08-05T09:13:21.315Z,50.80
2022-08-05T09:15:51.122Z,51.10
2022-08-05T09:18:17.967Z,51.70
2022-08-05T09:20:45.899Z,51.20
2022-08-05T09:23:18.484Z,50.00
2022-08-05T09:26:02.229Z,50.50
2022-08-05T09:28:33.502Z,51.20
2022-08-05T09:31:23.213Z,52.80
2022-08-05T09:33:59.279Z,51.20
2022-08-05T09:36:55.774Z,51.80
2022-08-05T09:39:41.280Z,51.50
2022-08-05T09:42:23.347Z,51.10
2022-08-05T09:44:56.630Z,51.40
2022-08-05T09:47:36.367Z,48.90
2022-08-05T09:50:18.141Z,50.00
2022-08-05T09:53:01.150Z,49.30
2022-08-05T09:55:58.237Z,49.00
2022-08-05T09:58:15.493Z,48.70
2022-08-05T10:00:57.085Z,48.10
2022-08-05T10:03:24.870Z,49.70
2022-08-05T10:06:15.689Z,48.80
2022-08-05T10:08:42.887Z,48.10
2022-08-05T10:11:17.195Z,48.60
2022-08-05T10:13:47.898Z,48.20
2022-08-05T10:16:37.662Z,48.40
2022-08-05T10:19:09.148Z,49.10
2022-08-05T10:21:40.297Z,48.60
2022-08-05T10:24:13.128Z,49.80
2022-08-05T10:26:51.232Z,48.10
2022-08-05T10:29:24.134Z,47.80
2022-08-05T10:32:54.910Z,47.30
2022-08-05T10:35:00.807Z,48.80
2022-08-05T10:37:40.103Z,47.80
2022-08-05T10:40:49.223Z,48.40
2022-08-05T10:43:30.919Z,50.00
2022-08-05T10:46:08.614Z,49.30
2022-08-05T10:48:56.679Z,49.30
2022-08-05T10:51:28.879Z,49.10
2022-08-05T10:54:01.586Z,49.20
2022-08-05T10:56:45.573Z,49.10
2022-08-05T11:00:04.323Z,48.30
2022-08-05T11:02:14.061Z,49.10
2022-08-05T11:04:54.325Z,48.10
2022-08-05T11:07:33.198Z,48.50
2022-08-05T11:10:22.382Z,48.60
2022-08-05T11:12:55.951Z,48.00
2022-08-05T11:16:00.874Z,48.00
2022-08-05T11:18:32.357Z,49.30
2022-08-05T11:21:00.215Z,48.00
2022-08-05T11:23:33.436Z,48.10
2022-08-05T11:26:16.650Z,48.70
2022-08-05T11:28:56.390Z,47.40
2022-08-05T11:31:57.341Z,48.50
2022-08-05T11:34:37.264Z,49.00
2022-08-05T11:37:06.093Z,47.90
2022-08-05T11:40:00.779Z,47.60
2022-08-05T11:42:37.773Z,47.20
2022-08-05T11:45:23.229Z,47.30
2022-08-05T11:47:54.748Z,47.80
2022-08-05T11:50:22.231Z,47.10
2022-08-05T11:52:52.023Z,48.20
2022-08-05T11:55:21.379Z,48.90
2022-08-05T11:58:09.298Z,47.40
2022-08-05T12:00:39.142Z,47.40
2022-08-05T12:03:23.889Z,45.90
2022-08-05T12:06:06.686Z,47.20
2022-08-05T12:09:04.110Z,46.70
2022-08-05T12:11:40.116Z,46.50
2022-08-05T12:14:08.742Z,47.20
2022-08-05T12:16:45.126Z,46.80
2022-08-05T12:20:25.769Z,46.90
2022-08-05T12:22:01.107Z,47.00
2022-08-05T12:24:28.112Z,47.00
2022-08-05T12:26:56.897Z,46.90
2022-08-05T12:29:26.265Z,45.50
2022-08-05T12:32:01.805Z,47.30
2022-08-05T12:34:35.700Z,46.90
2022-08-05T12:37:10.875Z,46.70
2022-08-05T12:39:48.614Z,46.70
2022-08-05T12:42:19.354Z,45.60
2022-08-05T12:44:47.546Z,47.50
2022-08-05T12:47:26.666Z,45.60
2022-08-05T12:50:04.782Z,44.60
2022-08-05T12:52:41.551Z,44.70
2022-08-05T12:55:22.946Z,45.40
2022-08-05T12:58:49.251Z,45.80
2022-08-05T13:02:01.519Z,45.00
2022-08-05T13:03:32.576Z,44.00
2022-08-05T13:06:00.882Z,43.10
2022-08-05T13:08:30.265Z,42.60
2022-08-05T13:11:04.131Z,44.20
2022-08-05T13:14:04.841Z,42.90
2022-08-05T13:16:19.565Z,42.30
2022-08-05T13:18:58.390Z,43.30
2022-08-05T13:21:27.832Z,43.50
2022-08-05T13:23:55.562Z,43.50
2022-08-05T13:26:27.206Z,43.40
2022-08-05T13:28:57.490Z,42.70
2022-08-05T13:32:02.814Z,41.90
2022-08-05T13:34:22.727Z,41.90
2022-08-05T13:36:52.996Z,42.70
2022-08-05T13:39:24.337Z,43.00
2022-08-05T13:42:06.919Z,43.10
2022-08-05T13:44:34.930Z,42.70
2022-08-05T13:47:08.634Z,43.80
2022-08-05T13:49:36.180Z,42.50
2022-08-05T13:52:35.456Z,43.40
2022-08-05T13:55:07.287Z,43.10
2022-08-05T13:57:50.758Z,43.30
2022-08-05T14:00:19.613Z,42.70
2022-08-05T14:02:54.115Z,43.10
2022-08-05T14:05:48.437Z,42.70
2022-08-05T14:08:19.864Z,43.40
2022-08-05T14:10:47.809Z,42.80
2022-08-05T14:13:15.428Z,42.40
2022-08-05T14:16:07.847Z,43.60
2022-08-05T14:18:29.023Z,43.50
2022-08-05T14:20:55.711Z,43.90
2022-08-05T14:23:24.763Z,42.70
2022-08-05T14:25:58.650Z,43.00
2022-08-05T14:28:29.095Z,42.30
2022-08-05T14:31:00.432Z,43.50
2022-08-05T14:33:27.772Z,43.50
2022-08-05T14:36:14.480Z,43.90
2022-08-05T14:38:41.849Z,44.10
2022-08-05T14:41:08.512Z,44.10
2022-08-05T14:43:59.324Z,44.10
2022-08-05T14:46:28.276Z,44.40
2022-08-05T14:48:58.173Z,45.20
2022-08-05T14:51:26.507Z,45.70
2022-08-05T14:54:06.630Z,45.80
2022-08-05T14:56:46.602Z,45.50
2022-08-05T14:59:14.015Z,46.00
2022-08-05T15:01:48.395Z,45.70
2022-08-05T15:04:17.147Z,46.00
2022-08-05T15:06:48.942Z,46.40
2022-08-05T15:09:51.531Z,47.00
2022-08-05T15:12:08.870Z,47.50
2022-08-05T15:14:48.219Z,48.10
2022-08-05T15:17:46.289Z,48.20
2022-08-05T15:20:18.492Z,48.80
2022-08-05T15:22:46.737Z,48.60
2022-08-05T15:25:23.660Z,50.20
2022-08-05T15:28:08.855Z,51.40
2022-08-05T15:30:42.370Z,51.10
2022-08-05T15:33:10.797Z,51.80
2022-08-05T15:35:45.384Z,52.60
2022-08-05T15:38:36.073Z,52.40
2022-08-05T15:41:21.973Z,53.30
2022-08-05T15:43:46.942Z,54.50
2022-08-05T15:46:14.045Z,55.60
2022-08-05T15:48:41.162Z,57.20
2022-08-05T15:52:03.924Z,58.10
2022-08-05T15:54:15.276Z,57.50
2022-08-05T15:56:42.565Z,58.20
2022-08-05T15:59:10.583Z,58.30
2022-08-05T16:01:52.289Z,58.40
2022-08-05T16:04:20.903Z,58.20
2022-08-05T16:06:53.355Z,58.00
2022-08-05T16:09:22.080Z,58.30
2022-08-05T16:11:52.742Z,58.60
2022-08-05T16:14:19.963Z,58.90
2022-08-05T16:16:47.250Z,58.40
2022-08-05T16:19:19.185Z,58.30
2022-08-05T16:22:03.138Z,59.10
2022-08-05T16:24:41.798Z,59.30
2022-08-05T16:27:17.670Z,59.20
2022-08-05T16:29:50.434Z,59.50
2022-08-05T16:32:28.709Z,59.30
2022-08-05T16:34:57.335Z,58.80
2022-08-05T16:38:10.576Z,59.30
2022-08-05T16:40:13.703Z,59.50
2022-08-05T16:42:55.689Z,59.60
2022-08-05T16:46:05.422Z,60.00
2022-08-05T16:48:10.398Z,60.70
2022-08-05T16:50:38.053Z,60.80
2022-08-05T16:53:12.301Z,60.00
2022-08-05T16:55:49.030Z,59.80
2022-08-05T16:58:19.649Z,60.40
2022-08-05T17:00:48.206Z,60.50
2022-08-05T17:03:20.019Z,60.00
2022-08-05T17:05:51.824Z,60.20
2022-08-05T17:08:35.791Z,60.30
2022-08-05T17:11:12.745Z,60.50
2022-08-05T17:13:44.335Z,60.30
2022-08-05T17:16:32.714Z,60.40
2022-08-05T17:18:58.538Z,60.80
2022-08-05T17:21:25.288Z,60.20
2022-08-05T17:24:04.284Z,60.20
2022-08-05T17:26:36.232Z,60.80
2022-08-05T17:29:09.827Z,61.20
2022-08-05T17:31:57.356Z,60.80
2022-08-05T17:34:29.887Z,60.90
2022-08-05T17:37:02.328Z,60.80
2022-08-05T17:39:34.617Z,60.70
2022-08-05T17:42:20.051Z,61.00
2022-08-05T17:44:50.074Z,61.20
2022-08-05T17:47:22.534Z,61.30
2022-08-05T17:50:04.146Z,60.90
2022-08-05T17:52:52.861Z,61.10
2022-08-05T17:55:22.152Z,60.70
2022-08-05T17:57:50.152Z,60.50
2022-08-05T18:00:17.475Z,60.70
2022-08-05T18:02:47.170Z,61.10
2022-08-05T18:05:16.966Z,61.70
2022-08-05T18:07:44.752Z,61.10
2022-08-05T18:10:20.545Z,61.00
2022-08-05T18:12:48.887Z,61.60
2022-08-05T18:15:15.642Z,62.00
2022-08-05T18:18:00.202Z,62.50
2022-08-05T18:20:31.611Z,62.20
2022-08-05T18:23:09.487Z,62.80
2022-08-05T18:25:44.875Z,63.30
2022-08-05T18:28:17.499Z,63.90
2022-08-05T18:30:45.755Z,64.20
2022-08-05T18:33:18.001Z,64.60
2022-08-05T18:36:04.936Z,65.30
2022-08-05T18:38:36.824Z,66.10
2022-08-05T18:41:58.087Z,66.90
2022-08-05T18:43:54.292Z,68.10
2022-08-05T18:46:21.086Z,68.70
2022-08-05T18:48:51.652Z,71.10
2022-08-05T18:52:03.179Z,72.20
2022-08-05T18:54:31.423Z,72.40
2022-08-05T18:57:02.214Z,72.80
2022-08-05T18:59:42.840Z,73.20
2022-08-05T19:02:27.997Z,73.30
2022-08-05T19:05:02.338Z,73.10
2022-08-05T19:07:46.213Z,73.90
2022-08-05T19:10:14.826Z,74.80
2022-08-05T19:12:41.746Z,74.80
2022-08-05T19:15:10.676Z,75.20
2022-08-05T19:18:08.108Z,75.50
2022-08-05T19:20:36.996Z,76.90
2022-08-05T19:23:08.232Z,76.50
2022-08-05T19:25:42.044Z,76.70
2022-08-05T19:28:10.344Z,77.30
2022-08-05T19:30:37.071Z,77.00
2022-08-05T19:33:04.618Z,77.10
2022-08-05T19:35:56.524Z,77.60
2022-08-05T19:38:26.473Z,79.60
2022-08-05T19:40:53.604Z,82.70
2022-08-05T19:44:04.168Z,87.10
2022-08-05T19:46:16.812Z,89.70
2022-08-05T19:48:53.851Z,90.10
2022-08-05T19:51:22.076Z,90.50
2022-08-05T19:54:17.729Z,90.20
2022-08-05T19:56:55.545Z,90.60
2022-08-05T19:59:56.103Z,89.00
2022-08-05T20:02:09.483Z,89.10
2022-08-05T20:04:37.921Z,90.30
2022-08-05T20:07:13.266Z,89.70
2022-08-05T20:09:55.193Z,88.60
2022-08-05T20:12:24.879Z,87.90
2022-08-05T20:14:53.029Z,88.30
2022-08-05T20:17:23.647Z,87.90
2022-08-05T20:19:56.792Z,87.40
2022-08-05T20:22:26.671Z,86.60
2022-08-05T20:24:54.753Z,85.10
2022-08-05T20:27:26.524Z,85.00
2022-08-05T20:29:58.335Z,85.70
2022-08-05T20:32:25.938Z,86.10
2022-08-05T20:34:52.831Z,85.90
2022-08-05T20:38:04.573Z,85.50
2022-08-05T20:40:07.400Z,86.10
2022-08-05T20:42:34.694Z,86.30
2022-08-05T20:45:02.657Z,88.70
2022-08-05T20:47:32.359Z,91.90
2022-08-05T20:49:59.905Z,93.90
2022-08-05T20:52:29.226Z,94.10
2022-08-05T20:55:15.976Z,94.70
2022-08-05T20:57:44.908Z,95.30
2022-08-05T21:00:34.996Z,95.40
2022-08-05T21:03:07.202Z,95.60
2022-08-05T21:05:47.756Z,94.70
2022-08-05T21:08:21.114Z,95.10
2022-08-05T21:10:53.783Z,95.00
2022-08-05T21:13:35.098Z,94.30
2022-08-05T21:16:07.465Z,94.20
2022-08-05T21:18:34.465Z,94.30
2022-08-05T21:21:02.672Z,94.10
2022-08-05T21:23:29.378Z,93.70
2022-08-05T21:26:08.224Z,93.50
2022-08-05T21:28:40.210Z,93.30
2022-08-05T21:31:14.756Z,93.40
2022-08-05T21:33:43.374Z,93.40
2022-08-05T21:36:19.066Z,95.00
2022-08-05T21:38:54.304Z,95.60
2022-08-05T21:41:21.158Z,95.50
2022-08-05T21:43:51.040Z,95.60
2022-08-05T21:46:28.742Z,95.20
2022-08-05T21:48:56.804Z,94.80
2022-08-05T21:52:22.618Z,96.10
2022-08-05T21:54:13.269Z,95.70
2022-08-05T21:56:44.721Z,96.60
2022-08-05T21:59:24.375Z,96.10
2022-08-05T22:01:54.463Z,96.10
2022-08-05T22:04:25.534Z,96.30
2022-08-05T22:06:52.828Z,96.40
2022-08-05T22:09:21.153Z,95.60
2022-08-05T22:11:49.051Z,95.10
2022-08-05T22:14:35.311Z,95.60
2022-08-05T22:17:06.986Z,95.10
2022-08-05T22:19:57.246Z,93.60
2022-08-05T22:22:27.083Z,92.30
2022-08-05T22:25:17.701Z,93.00
2022-08-05T22:28:10.362Z,92.70
2022-08-05T22:30:53.515Z,92.20
2022-08-05T22:33:58.636Z,91.70
2022-08-05T22:36:14.329Z,92.10
2022-08-05T22:38:42.584Z,92.30
2022-08-05T22:41:10.168Z,91.60
2022-08-05T22:43:37.969Z,91.40
2022-08-05T22:46:13.119Z,90.70
2022-08-05T22:48:41.826Z,89.80
2022-08-05T22:51:15.597Z,90.00
2022-08-05T22:53:42.853Z,90.20
2022-08-05T22:56:17.463Z,89.20
2022-08-05T22:58:57.939Z,86.90
2022-08-05T23:02:04.335Z,87.40
2022-08-05T23:04:13.863Z,87.10
2022-08-05T23:06:41.276Z,86.20
2022-08-05T23:09:14.265Z,87.70
2022-08-05T23:11:54.825Z,87.10
2022-08-05T23:14:22.464Z,86.10
2022-08-05T23:17:08.459Z,86.20
2022-08-05T23:19:41.955Z,86.80
2022-08-05T23:22:19.315Z,86.90
2022-08-05T23:24:54.453Z,87.90
2022-08-05T23:27:22.699Z,86.50
2022-08-05T23:29:50.758Z,85.90
2022-08-05T23:32:17.622Z,86.20
2022-08-05T23:34:50.900Z,85.00
2022-08-05T23:37:17.872Z,84.80
2022-08-05T23:39:54.262Z,84.60
2022-08-05T23:42:23.365Z,84.70
2022-08-05T23:44:56.173Z,83.00
2022-08-05T23:47:25.067Z,83.50
2022-08-05T23:49:56.356Z,83.50
2022-08-05T23:52:26.583Z,83.40
2022-08-05T23:54:59.860Z,83.90
2022-08-05T23:57:28.203Z,84.60
